Time;durP1;ratioP1;P1;durP2;ratioP2;P2;SDS_P1;SDS_P2;PMS_P1;PMS_P2;Temp;Humidity;BMP_temperature;BMP_pressure;BME280_temperature;BME280_humidity;BME280_pressure;Samples;Min_cycle;Max_cycle;Signal;HPM_P1;HPM_P2
2022/11/24 06:05:04;;;;;;;15.43;4.28;;;;;;;7.23;100.00;100439.22;5014311;28;20062;-75
2022/11/24 06:07:29;;;;;;;16.33;4.30;;;;;;;7.25;100.00;100444.41;5019087;28;20132;-74
2022/11/24 06:09:54;;;;;;;20.10;7.72;;;;;;;7.24;100.00;100453.94;5020113;28;20048;-74
2022/11/24 06:12:20;;;;;;;17.95;6.00;;;;;;;7.26;100.00;100465.50;5054726;23;20388;-74
2022/11/24 06:14:45;;;;;;;16.10;5.72;;;;;;;7.19;100.00;100457.00;4997768;28;20041;-74
2022/11/24 06:17:11;;;;;;;13.52;4.35;;;;;;;7.30;100.00;100469.19;4989637;28;20128;-74
2022/11/24 06:19:36;;;;;;;10.77;5.18;;;;;;;7.26;100.00;100473.88;4994740;28;20080;-74
2022/11/24 06:22:02;;;;;;;13.70;4.28;;;;;;;7.28;100.00;100471.53;4992875;28;20354;-74
2022/11/24 06:24:27;;;;;;;17.35;4.75;;;;;;;7.35;100.00;100479.22;4989858;28;21056;-74
2022/11/24 06:26:52;;;;;;;14.55;4.72;;;;;;;7.35;100.00;100480.00;4987018;28;20040;-74
2022/11/24 06:29:18;;;;;;;16.00;5.22;;;;;;;7.26;100.00;100496.13;5001516;28;20183;-74
2022/11/24 06:31:43;;;;;;;16.38;6.10;;;;;;;7.33;100.00;100499.84;5000007;28;20392;-74
2022/11/24 06:34:10;;;;;;;19.63;7.30;;;;;;;7.29;100.00;100495.38;4979153;28;20029;-74
2022/11/24 06:36:36;;;;;;;15.95;4.68;;;;;;;7.27;100.00;100506.91;4996084;28;20053;-76
2022/11/24 06:39:02;;;;;;;18.83;6.85;;;;;;;7.22;100.00;100511.94;4997961;28;20034;-76
2022/11/24 06:41:27;;;;;;;22.13;5.90;;;;;;;7.27;100.00;100522.78;4996484;28;20027;-77
2022/11/24 06:43:52;;;;;;;14.07;5.50;;;;;;;7.27;100.00;100520.00;4990740;28;20057;-75
2022/11/24 06:46:18;;;;;;;18.48;5.65;;;;;;;7.27;100.00;100531.16;5002227;28;20060;-76
2022/11/24 06:48:43;;;;;;;11.48;4.50;;;;;;;7.31;100.00;100520.88;4993857;28;20038;-76
2022/11/24 06:51:11;;;;;;;12.88;4.97;;;;;;;7.38;100.00;100523.84;5001144;28;20444;-75
2022/11/24 06:53:38;;;;;;;23.58;6.80;;;;;;;7.35;100.00;100532.91;5000959;28;20468;-75
2022/11/24 06:56:09;;;;;;;14.57;6.43;;;;;;;7.36;100.00;100528.97;4978595;28;20029;-76
2022/11/24 06:58:42;;;;;;;17.80;5.10;;;;;;;7.39;100.00;100535.78;4992511;28;20104;-76
2022/11/24 07:01:07;;;;;;;23.58;5.10;;;;;;;7.39;100.00;100539.38;4991520;28;20029;-77
2022/11/24 07:03:32;;;;;;;14.23;6.72;;;;;;;7.36;100.00;100551.25;4988307;28;21776;-76
2022/11/24 07:05:58;;;;;;;13.25;5.07;;;;;;;7.33;100.00;100557.53;4972855;28;20034;-76
2022/11/24 07:08:25;;;;;;;22.48;5.80;;;;;;;7.54;100.00;100557.19;4994105;28;20033;-75
2022/11/24 07:10:51;;;;;;;27.67;5.22;;;;;;;8.06;100.00;100566.22;4994935;28;20404;-73
2022/11/24 07:13:19;;;;;;;15.63;5.03;;;;;;;7.88;100.00;100575.00;5000007;28;20053;-74
2022/11/24 07:15:45;;;;;;;17.42;5.10;;;;;;;7.69;100.00;100580.59;4995459;28;20045;-73
2022/11/24 07:18:11;;;;;;;15.27;5.95;;;;;;;7.49;100.00;100582.56;4989875;28;20436;-73
2022/11/24 07:20:36;;;;;;;12.75;4.03;;;;;;;7.42;100.00;100588.78;5005834;28;20109;-72
2022/11/24 07:23:01;;;;;;;11.10;4.45;;;;;;;7.44;100.00;100586.44;5002192;28;20180;-73
2022/11/24 07:25:27;;;;;;;13.40;4.18;;;;;;;7.39;100.00;100600.63;5000524;28;20036;-73
2022/11/24 07:27:56;;;;;;;16.08;4.97;;;;;;;7.40;100.00;100602.25;4981361;28;20052;-74
2022/11/24 07:30:22;;;;;;;14.48;5.43;;;;;;;7.32;100.00;100606.03;5007294;28;20075;-74
2022/11/24 07:32:48;;;;;;;9.18;3.72;;;;;;;7.32;100.00;100614.41;4977270;28;20038;-73
2022/11/24 07:35:13;;;;;;;8.80;3.40;;;;;;;7.30;100.00;100613.97;4993792;28;20045;-74
2022/11/24 07:37:38;;;;;;;10.52;3.53;;;;;;;7.26;100.00;100605.50;4991955;28;20040;-74
2022/11/24 07:40:04;;;;;;;11.23;2.95;;;;;;;7.32;100.00;100617.19;4994915;28;20412;-74
2022/11/24 07:42:30;;;;;;;7.07;2.83;;;;;;;7.44;100.00;100619.84;4994552;28;20048;-73
2022/11/24 07:44:55;;;;;;;3.17;2.40;;;;;;;7.29;100.00;100618.72;5010334;28;20029;-73
2022/11/24 07:47:20;;;;;;;6.63;2.70;;;;;;;7.31;100.00;100615.56;5006108;28;20042;-73
2022/11/24 07:49:46;;;;;;;4.75;2.08;;;;;;;7.26;100.00;100629.75;4997361;28;20029;-74
2022/11/24 07:52:11;;;;;;;4.88;1.75;;;;;;;7.23;100.00;100630.47;4992423;28;20025;-74
2022/11/24 07:54:36;;;;;;;8.20;2.10;;;;;;;7.66;100.00;100632.28;4999629;28;20472;-74
2022/11/24 07:57:02;;;;;;;4.82;2.03;;;;;;;7.38;100.00;100626.88;5005897;28;20025;-74
2022/11/24 07:59:27;;;;;;;8.60;2.13;;;;;;;7.38;100.00;100639.97;4993530;28;20455;-73
2022/11/24 08:01:52;;;;;;;7.93;1.95;;;;;;;7.34;100.00;100642.69;4999610;28;20485;-72
2022/11/24 08:04:18;;;;;;;2.78;1.45;;;;;;;7.28;100.00;100652.47;5001114;28;20485;-73
2022/11/24 08:06:43;;;;;;;3.45;2.05;;;;;;;7.23;100.00;100664.72;5007415;28;20061;-73
2022/11/24 08:09:08;;;;;;;4.13;1.50;;;;;;;7.26;100.00;100663.16;5010273;28;20115;-73
2022/11/24 08:11:34;;;;;;;4.90;1.48;;;;;;;7.16;100.00;100672.06;5005828;28;20117;-73
2022/11/24 08:13:59;;;;;;;3.50;1.10;;;;;;;7.32;100.00;100670.09;5015704;28;20426;-73
2022/11/24 08:16:25;;;;;;;6.93;1.60;;;;;;;7.36;100.00;100684.06;5006459;28;20473;-73
2022/11/24 08:18:52;;;;;;;2.63;1.70;;;;;;;7.31;100.00;100682.38;5003211;28;20032;-73
2022/11/24 08:21:18;;;;;;;4.50;1.27;;;;;;;7.18;100.00;100687.22;4986007;28;20469;-73
2022/11/24 08:23:44;;;;;;;6.57;1.52;;;;;;;7.29;100.00;100684.72;4999400;28;20040;-72
2022/11/24 08:26:16;;;;;;;4.25;1.65;;;;;;;7.34;100.00;100684.44;4998945;28;20504;-74
2022/11/24 08:28:42;;;;;;;5.18;1.33;;;;;;;7.23;100.00;100686.97;4995876;28;20749;-73
2022/11/24 08:31:14;;;;;;;4.50;1.25;;;;;;;7.31;100.00;100704.66;4998497;28;20513;-76
2022/11/24 08:33:40;;;;;;;3.20;1.52;;;;;;;7.33;100.00;100705.09;4999826;28;20189;-75
2022/11/24 08:36:18;;;;;;;3.03;2.53;;;;;;;7.35;100.00;100705.53;5001932;28;20608;-74
2022/11/24 08:38:44;;;;;;;4.78;1.58;;;;;;;7.42;100.00;100697.38;4980707;28;20548;-74
2022/11/24 08:41:12;;;;;;;4.85;2.10;;;;;;;7.38;100.00;100704.84;4982999;28;20034;-73
2022/11/24 08:43:38;;;;;;;6.45;2.67;;;;;;;7.34;100.00;100703.94;4993138;28;20026;-72
2022/11/24 08:46:06;;;;;;;6.80;2.72;;;;;;;7.35;100.00;100715.88;4984463;28;20077;-73
2022/11/24 08:48:33;;;;;;;8.20;3.10;;;;;;;7.36;100.00;100718.31;4997431;28;20049;-73
2022/11/24 08:51:13;;;;;;;7.22;3.85;;;;;;;7.38;100.00;100707.63;4997268;28;20569;-73
2022/11/24 08:53:39;;;;;;;8.23;3.55;;;;;;;7.37;100.00;100719.91;4996445;28;20116;-73
2022/11/24 08:56:06;;;;;;;7.10;3.85;;;;;;;7.40;100.00;100721.16;4996798;28;20041;-74
2022/11/24 08:58:32;;;;;;;10.63;4.50;;;;;;;7.45;100.00;100732.84;4996322;28;20030;-75
2022/11/24 09:01:05;;;;;;;11.27;4.68;;;;;;;7.45;100.00;100735.63;4997327;28;20488;-73
2022/11/24 09:03:31;;;;;;;8.52;4.68;;;;;;;7.49;100.00;100733.75;4992777;28;20026;-74
2022/11/24 09:05:56;;;;;;;8.13;4.38;;;;;;;7.44;100.00;100731.25;4998446;28;20385;-73
2022/11/24 09:08:21;;;;;;;9.88;5.25;;;;;;;7.42;100.00;100741.09;4995123;28;20095;-74
2022/11/24 09:10:47;;;;;;;7.68;4.55;;;;;;;7.52;100.00;100744.16;4987663;28;20034;-73
2022/11/24 09:13:12;;;;;;;12.00;5.57;;;;;;;7.50;100.00;100735.34;4997667;28;20042;-73
2022/11/24 09:15:38;;;;;;;13.43;6.28;;;;;;;7.51;100.00;100730.63;5009564;28;20063;-74
2022/11/24 09:18:04;;;;;;;8.98;5.03;;;;;;;7.61;100.00;100741.22;4987633;28;20370;-73
2022/11/24 09:20:29;;;;;;;11.63;5.88;;;;;;;7.58;100.00;100744.69;5001148;28;20476;-73
2022/11/24 09:22:55;;;;;;;10.55;5.68;;;;;;;7.61;100.00;100741.22;5003433;28;20025;-73
2022/11/24 09:25:22;;;;;;;8.57;5.13;;;;;;;7.68;100.00;100754.50;4980793;28;20029;-73
2022/11/24 09:27:48;;;;;;;12.57;6.75;;;;;;;7.72;100.00;100755.41;5009141;28;20037;-74
2022/11/24 09:30:13;;;;;;;11.68;5.75;;;;;;;7.66;100.00;100767.97;5004690;28;20457;-73
2022/11/24 09:32:38;;;;;;;13.07;6.43;;;;;;;7.68;100.00;100768.44;4984289;28;20120;-76
2022/11/24 09:35:04;;;;;;;14.35;6.55;;;;;;;7.62;100.00;100775.44;5004252;28;20303;-74
2022/11/24 09:37:31;;;;;;;13.70;6.57;;;;;;;7.72;100.00;100780.47;5002842;28;20021;-73
2022/11/24 09:39:56;;;;;;;15.43;7.15;;;;;;;7.72;100.00;100786.03;5004424;28;20049;-73
2022/11/24 09:42:37;;;;;;;14.60;7.85;;;;;;;7.66;100.00;100782.72;5011220;28;20026;-74
2022/11/24 09:45:28;;;;;;;17.42;7.78;;;;;;;7.70;100.00;100785.59;5002889;28;20483;-74
2022/11/24 09:48:14;;;;;;;14.20;7.15;;;;;;;7.73;100.00;100791.22;5008380;28;20950;-74
2022/11/24 09:50:42;;;;;;;13.80;7.28;;;;;;;7.74;100.00;100792.88;5007176;28;20029;-74
2022/11/24 09:53:29;;;;;;;12.98;7.97;;;;;;;7.73;100.00;100794.00;5003083;28;20061;-74
2022/11/24 09:55:59;;;;;;;11.85;7.25;;;;;;;7.82;100.00;100806.97;4992239;28;20230;-74
2022/11/24 09:58:47;;;;;;;19.05;6.60;;;;;;;7.89;100.00;100810.72;5005111;28;20500;-74
2022/11/24 10:01:35;;;;;;;15.85;7.55;;;;;;;7.90;100.00;100798.41;5003612;28;20075;-74
2022/11/24 10:04:01;;;;;;;16.92;7.47;;;;;;;7.98;100.00;100820.88;5006772;28;20072;-74
2022/11/24 10:06:33;;;;;;;19.02;7.32;;;;;;;7.97;100.00;100827.63;5007986;28;20033;-74
2022/11/24 10:09:17;;;;;;;29.45;10.15;;;;;;;8.04;100.00;100830.59;5003730;28;20108;-74
2022/11/24 10:11:55;;;;;;;14.15;7.38;;;;;;;8.06;100.00;100836.63;5003293;28;20029;-74
2022/11/24 10:14:42;;;;;;;16.02;7.47;;;;;;;8.11;100.00;100833.53;4995580;28;20057;-74
2022/11/24 10:17:29;;;;;;;13.80;7.10;;;;;;;8.09;100.00;100839.47;4996908;28;20376;-74
2022/11/24 10:20:16;;;;;;;17.70;7.78;;;;;;;8.16;100.00;100850.00;4999684;28;20029;-75
2022/11/24 10:22:59;;;;;;;14.40;7.20;;;;;;;8.26;100.00;100848.63;5001180;28;20030;-74
2022/11/24 10:25:40;;;;;;;17.23;7.35;;;;;;;8.21;100.00;100838.56;5001463;28;20580;-74
2022/11/24 10:28:12;;;;;;;14.82;6.97;;;;;;;8.33;100.00;100857.97;4997232;28;20099;-74
2022/11/24 10:30:38;;;;;;;12.70;6.85;;;;;;;8.37;100.00;100857.22;5001959;28;20021;-73
2022/11/24 10:33:20;;;;;;;15.75;6.95;;;;;;;8.34;100.00;100851.22;5001721;28;20037;-73
2022/11/24 10:35:54;;;;;;;18.05;6.95;;;;;;;8.40;100.00;100843.38;4999062;28;20029;-75
2022/11/24 10:38:25;;;;;;;12.60;6.28;;;;;;;8.40;100.00;100842.56;5003529;28;20033;-74
2022/11/24 10:41:02;;;;;;;16.27;7.00;;;;;;;8.47;100.00;100854.72;5002093;28;20034;-74
2022/11/24 10:43:28;;;;;;;15.90;6.43;;;;;;;8.49;100.00;100852.38;4992378;28;20065;-76
2022/11/24 10:46:15;;;;;;;13.27;6.50;;;;;;;8.52;100.00;100856.44;5005115;28;20026;-73
2022/11/24 10:48:56;;;;;;;14.93;6.35;;;;;;;8.57;100.00;100858.91;4999628;28;20040;-75
2022/11/24 10:51:27;;;;;;;15.75;6.40;;;;;;;8.57;100.00;100864.50;4998624;28;20029;-75
2022/11/24 10:54:08;;;;;;;15.63;6.35;;;;;;;8.61;100.00;100864.59;5000447;28;20068;-74
2022/11/24 10:56:41;;;;;;;21.20;7.22;;;;;;;8.69;100.00;100867.16;4999139;28;20044;-77
2022/11/24 10:59:28;;;;;;;16.17;6.80;;;;;;;8.72;100.00;100874.78;5004498;28;20025;-74
2022/11/24 11:01:54;;;;;;;17.17;6.30;;;;;;;8.72;100.00;100876.78;4998496;28;20382;-74
2022/11/24 11:04:24;;;;;;;18.65;5.85;;;;;;;8.82;100.00;100881.00;5001496;28;20125;-74
2022/11/24 11:06:49;;;;;;;18.40;5.47;;;;;;;8.86;100.00;100879.09;4998472;28;20037;-74
2022/11/24 11:09:18;;;;;;;10.70;4.50;;;;;;;8.86;100.00;100881.88;4994182;28;20022;-74
2022/11/24 11:11:47;;;;;;;14.93;5.70;;;;;;;8.92;100.00;100883.22;5004242;28;20057;-74
2022/11/24 11:14:28;;;;;;;13.30;6.97;;;;;;;8.97;100.00;100882.91;4998656;28;20056;-73
2022/11/24 11:16:56;;;;;;;17.38;5.95;;;;;;;8.99;100.00;100891.72;5015804;28;21674;-73
2022/11/24 11:19:38;;;;;;;10.82;5.03;;;;;;;9.00;100.00;100892.53;5003995;28;20089;-75
2022/11/24 11:22:14;;;;;;;12.07;5.87;;;;;;;9.05;100.00;100886.66;5003154;28;20493;-76
2022/11/24 11:24:42;;;;;;;12.70;4.60;;;;;;;9.09;100.00;100885.56;5005280;28;20038;-76
2022/11/24 11:27:19;;;;;;;11.35;5.03;;;;;;;9.10;100.00;100887.16;5004654;28;20491;-76
2022/11/24 11:29:46;;;;;;;14.75;4.70;;;;;;;9.16;100.00;100888.47;5001750;28;20042;-76
2022/11/24 11:32:23;;;;;;;12.80;4.40;;;;;;;9.16;100.00;100890.47;4999755;28;20400;-75
2022/11/24 11:34:51;;;;;;;11.38;4.13;;;;;;;9.15;100.00;100894.47;4997978;28;20030;-76
2022/11/24 11:37:17;;;;;;;15.32;5.18;;;;;;;9.33;100.00;100897.59;4993794;28;20438;-76
2022/11/24 11:39:46;;;;;;;18.38;4.63;;;;;;;9.32;100.00;100905.16;5003512;28;20488;-76
2022/11/24 11:42:22;;;;;;;11.85;3.35;;;;;;;9.30;100.00;100901.94;4987298;28;20045;-75
2022/11/24 11:45:04;;;;;;;15.57;4.07;;;;;;;9.30;100.00;100895.56;4981663;28;20506;-76
2022/11/24 11:47:56;;;;;;;10.85;3.08;;;;;;;9.53;100.00;100906.78;4993283;28;20033;-76
2022/11/24 11:50:26;;;;;;;18.70;3.97;;;;;;;9.68;100.00;100897.47;4986240;28;20115;-76
2022/11/24 11:53:10;;;;;;;14.75;3.80;;;;;;;9.64;100.00;100904.19;5006201;28;20416;-77
2022/11/24 11:55:43;;;;;;;19.23;5.15;;;;;;;9.61;100.00;100904.91;5014202;28;20504;-77
2022/11/24 11:58:31;;;;;;;18.50;3.22;;;;;;;9.70;100.00;100902.69;5009375;28;20022;-76
2022/11/24 12:01:28;;;;;;;16.30;3.60;;;;;;;9.76;100.00;100903.97;5010313;28;20099;-77
2022/11/24 12:04:08;;;;;;;10.50;3.33;;;;;;;9.72;100.00;100905.94;5007502;28;20093;-77
2022/11/24 12:07:08;;;;;;;17.45;3.28;;;;;;;9.61;100.00;100896.50;5006867;28;20032;-76
2022/11/24 12:09:58;;;;;;;16.13;3.05;;;;;;;9.67;100.00;100901.41;5006558;28;20444;-76
2022/11/24 12:12:58;;;;;;;15.40;4.35;;;;;;;9.64;100.00;100909.75;5016529;28;20025;-76
2022/11/24 12:15:38;;;;;;;17.35;3.45;;;;;;;9.71;100.00;100910.69;4994593;28;20381;-78
2022/11/24 12:18:18;;;;;;;13.07;4.07;;;;;;;9.82;100.00;100915.66;4992645;28;20022;-77
2022/11/24 12:20:53;;;;;;;13.70;4.18;;;;;;;9.62;100.00;100912.91;5004444;28;20096;-77
2022/11/24 12:23:34;;;;;;;17.73;3.88;;;;;;;9.74;100.00;100911.94;4981582;28;20546;-77
2022/11/24 12:26:03;;;;;;;11.05;3.05;;;;;;;9.57;100.00;100921.59;4984199;28;20061;-77
2022/11/24 12:28:40;;;;;;;12.45;5.00;;;;;;;9.86;100.00;100922.94;4988730;28;20026;-78
2022/11/24 12:31:08;;;;;;;20.48;4.10;;;;;;;9.76;100.00;100923.53;4967191;28;20041;-77
2022/11/24 12:34:02;;;;;;;17.38;3.65;;;;;;;9.79;100.00;100916.44;4983812;28;20041;-77
2022/11/24 12:36:50;;;;;;;22.50;4.10;;;;;;;9.79;100.00;100910.84;4977069;28;20375;-76
2022/11/24 12:39:33;;;;;;;15.50;3.72;;;;;;;9.71;100.00;100915.47;4984400;28;20026;-76
2022/11/24 12:42:16;;;;;;;16.08;4.57;;;;;;;9.72;100.00;100908.72;4988456;28;20031;-76
2022/11/24 12:45:07;;;;;;;15.32;3.80;;;;;;;9.68;100.00;100911.44;4990043;28;20042;-77
2022/11/24 12:47:56;;;;;;;12.75;3.78;;;;;;;9.69;100.00;100912.25;4981760;28;20038;-76
2022/11/24 12:50:27;;;;;;;11.07;3.42;;;;;;;9.61;100.00;100924.47;4983893;28;20038;-76
2022/11/24 12:52:59;;;;;;;16.15;4.05;;;;;;;9.67;100.00;100925.78;4990333;28;20116;-76
2022/11/24 12:55:27;;;;;;;19.30;5.00;;;;;;;9.66;100.00;100913.81;4992133;28;20249;-76
2022/11/24 12:58:02;;;;;;;18.95;4.43;;;;;;;9.71;100.00;100921.06;4967903;28;20034;-76
2022/11/24 13:00:44;;;;;;;10.50;3.58;;;;;;;9.71;100.00;100926.66;4973956;28;20061;-77
2022/11/24 13:03:21;;;;;;;8.07;3.92;;;;;;;9.81;100.00;100934.44;4986753;28;20076;-77
2022/11/24 13:05:59;;;;;;;21.75;4.32;;;;;;;9.71;100.00;100933.03;4985446;28;20042;-77
2022/11/24 13:08:26;;;;;;;13.00;4.13;;;;;;;9.79;100.00;100928.41;4984988;28;20077;-77
2022/11/24 13:10:52;;;;;;;12.35;3.95;;;;;;;9.75;100.00;100921.94;4972912;28;20026;-76
2022/11/24 13:13:18;;;;;;;19.55;4.32;;;;;;;9.75;100.00;100930.31;4995875;28;20050;-77
2022/11/24 13:16:14;;;;;;;15.18;4.25;;;;;;;10.01;100.00;100934.38;4987475;28;20489;-77
2022/11/24 13:18:41;;;;;;;13.70;4.45;;;;;;;10.00;100.00;100929.97;4981620;28;20513;-76
2022/11/24 13:21:44;;;;;;;21.48;4.07;;;;;;;9.85;100.00;100934.50;4990255;28;20088;-76
2022/11/24 13:24:15;;;;;;;14.05;3.67;;;;;;;9.87;100.00;100934.94;4915565;29;20051;-75
2022/11/24 13:26:47;;;;;;;15.18;3.53;;;;;;;9.86;100.00;100925.72;4984214;28;20057;-75
2022/11/24 13:29:32;;;;;;;12.57;3.63;;;;;;;9.89;100.00;100933.38;4973657;28;20058;-75
2022/11/24 13:32:00;;;;;;;22.20;4.55;;;;;;;9.87;100.00;100924.56;4996593;28;20519;-75
2022/11/24 13:34:37;;;;;;;12.15;3.90;;;;;;;9.87;100.00;100932.94;4995442;28;20440;-75
2022/11/24 13:37:02;;;;;;;11.40;3.75;;;;;;;9.74;100.00;100926.72;4977193;28;20147;-76
2022/11/24 13:39:47;;;;;;;13.57;4.13;;;;;;;9.78;100.00;100932.38;4985889;28;20029;-75
2022/11/24 13:42:13;;;;;;;19.20;3.70;;;;;;;9.88;100.00;100930.94;4993343;28;20037;-75
2022/11/24 13:44:57;;;;;;;13.85;3.88;;;;;;;9.80;99.21;100935.59;4980657;28;20069;-76
2022/11/24 13:47:44;;;;;;;15.07;3.47;;;;;;;9.82;100.00;100935.22;4990969;28;20392;-76
2022/11/24 13:50:18;;;;;;;15.48;3.50;;;;;;;9.81;100.00;100931.63;4998856;28;20113;-76
2022/11/24 13:52:47;;;;;;;11.48;3.58;;;;;;;9.78;100.00;100929.56;4999891;28;20121;-76
2022/11/24 13:55:13;;;;;;;15.90;4.00;;;;;;;9.86;100.00;100939.72;5000918;28;20761;-76
2022/11/24 13:57:45;;;;;;;17.65;4.28;;;;;;;9.86;100.00;100944.50;4988209;28;20036;-76
2022/11/24 14:00:36;;;;;;;12.93;3.28;;;;;;;9.87;99.92;100946.13;4987919;28;20057;-76
2022/11/24 14:03:26;;;;;;;11.55;3.17;;;;;;;9.82;100.00;100949.22;4992331;28;20518;-76
2022/11/24 14:05:52;;;;;;;12.93;2.63;;;;;;;9.81;100.00;100954.00;4989280;28;20423;-76
2022/11/24 14:08:27;;;;;;;21.25;4.43;;;;;;;9.81;100.00;100954.00;5005284;28;20025;-77
2022/11/24 14:10:55;;;;;;;20.58;4.85;;;;;;;9.81;100.00;100954.00;5003573;28;20021;-76
2022/11/24 14:13:33;;;;;;;28.13;5.00;;;;;;;9.77;100.00;100947.53;5003817;28;20096;-77
2022/11/24 14:16:01;;;;;;;17.10;4.03;;;;;;;9.75;100.00;100944.31;4990951;28;20484;-77
2022/11/24 14:18:30;;;;;;;18.67;4.22;;;;;;;10.75;96.02;100940.41;5004905;28;20623;-74
2022/11/24 14:20:56;;;;;;;19.38;4.00;;;;;;;10.03;99.33;100943.19;5015709;28;20026;-74
2022/11/24 14:23:21;;;;;;;22.45;3.83;;;;;;;9.90;99.62;100942.56;5009205;28;20396;-74
2022/11/24 14:25:48;;;;;;;19.30;4.25;;;;;;;9.85;99.76;100940.91;4996312;28;20066;-75
2022/11/24 14:28:28;;;;;;;20.95;5.03;;;;;;;9.73;100.00;100941.06;5017016;28;20069;-74
2022/11/24 14:31:19;;;;;;;13.98;3.20;;;;;;;9.68;100.00;100930.19;5021881;28;20537;-74
2022/11/24 14:33:44;;;;;;;20.00;4.38;;;;;;;9.63;100.00;100938.88;5005962;28;20041;-74
2022/11/24 14:36:14;;;;;;;18.42;3.95;;;;;;;9.58;100.00;100931.59;4992399;28;20029;-74
2022/11/24 14:38:40;;;;;;;20.67;4.68;;;;;;;9.55;100.00;100938.75;4989863;28;20072;-74
2022/11/24 14:41:27;;;;;;;19.20;4.72;;;;;;;9.49;100.00;100948.59;5008749;28;20280;-74
2022/11/24 14:44:07;;;;;;;15.63;3.90;;;;;;;9.45;100.00;100944.94;5010132;28;20036;-74
2022/11/24 14:46:35;;;;;;;17.23;4.25;;;;;;;9.45;100.00;100950.53;5013352;28;20436;-74
2022/11/24 14:49:01;;;;;;;23.73;5.07;;;;;;;9.41;100.00;100958.03;5009038;28;20080;-74
2022/11/24 14:51:30;;;;;;;17.05;3.97;;;;;;;9.36;100.00;100949.94;5012451;28;20034;-74
2022/11/24 14:54:02;;;;;;;25.55;3.88;;;;;;;9.41;100.00;100957.22;5008595;28;20103;-74
2022/11/24 14:56:33;;;;;;;17.85;4.82;;;;;;;9.34;100.00;100957.88;5012391;28;20550;-74
2022/11/24 14:58:59;;;;;;;22.58;3.83;;;;;;;9.22;100.00;100967.22;5012128;28;20096;-74
2022/11/24 15:01:29;;;;;;;17.80;4.40;;;;;;;9.22;100.00;100963.59;5021460;28;20052;-74
2022/11/24 15:04:09;;;;;;;11.35;3.50;;;;;;;9.22;100.00;100958.81;4992022;28;20080;-74
2022/11/24 15:06:35;;;;;;;15.68;3.80;;;;;;;9.18;100.00;100959.94;4995460;28;20500;-74
2022/11/24 15:09:00;;;;;;;20.55;5.38;;;;;;;9.37;100.00;100968.31;4999433;28;20030;-74
2022/11/24 15:11:29;;;;;;;16.10;4.78;;;;;;;9.10;100.00;100962.56;4998802;28;20072;-74
2022/11/24 15:13:55;;;;;;;23.58;4.97;;;;;;;9.16;100.00;100968.66;4993345;28;20545;-74
2022/11/24 15:16:23;;;;;;;27.33;5.32;;;;;;;8.98;100.00;100964.66;4984501;28;20037;-75
2022/11/24 15:18:57;;;;;;;21.20;4.72;;;;;;;8.99;100.00;100966.31;5000829;28;20049;-75
2022/11/24 15:21:35;;;;;;;18.80;4.32;;;;;;;8.87;100.00;100970.00;4981032;28;20026;-75
2022/11/24 15:24:16;;;;;;;13.45;4.40;;;;;;;8.80;100.00;100967.88;5000125;28;20504;-75
2022/11/24 15:26:42;;;;;;;25.20;4.15;;;;;;;8.82;100.00;100970.31;4996360;28;20081;-75
2022/11/24 15:29:08;;;;;;;19.65;4.18;;;;;;;8.80;100.00;100975.44;4988998;28;20034;-75
2022/11/24 15:31:33;;;;;;;22.05;4.72;;;;;;;8.75;100.00;100968.97;4985050;28;20194;-76
2022/11/24 15:33:59;;;;;;;23.42;6.45;;;;;;;8.75;100.00;100966.19;4998619;28;20022;-75
2022/11/24 15:36:24;;;;;;;41.22;12.23;;;;;;;8.68;100.00;100971.56;4984340;28;20034;-75
2022/11/24 15:38:50;;;;;;;32.40;12.57;;;;;;;8.73;100.00;100968.53;5002500;28;20384;-75
2022/11/24 15:41:19;;;;;;;50.75;25.88;;;;;;;8.66;100.00;100973.13;4998978;28;20520;-75
2022/11/24 15:43:44;;;;;;;20.30;7.82;;;;;;;8.65;100.00;100975.09;4997429;28;20113;-75
2022/11/24 15:46:10;;;;;;;17.83;6.47;;;;;;;8.53;100.00;100980.78;4996336;28;20083;-75
2022/11/24 15:48:35;;;;;;;24.45;9.98;;;;;;;8.53;100.00;100986.38;4997868;28;20072;-76
2022/11/24 15:51:03;;;;;;;22.48;8.10;;;;;;;8.53;100.00;100981.59;5000281;28;20480;-75
2022/11/24 15:53:50;;;;;;;19.27;5.43;;;;;;;8.49;100.00;100991.03;4994359;28;20116;-75
2022/11/24 15:56:29;;;;;;;25.05;7.97;;;;;;;8.47;100.00;100991.41;4988236;28;20060;-74
2022/11/24 15:58:54;;;;;;;17.17;6.88;;;;;;;8.46;100.00;100992.59;5002708;28;20124;-74
2022/11/24 16:01:22;;;;;;;24.90;9.77;;;;;;;8.99;100.00;100992.22;5004377;28;20392;-72
2022/11/24 16:03:47;;;;;;;29.05;9.40;;;;;;;8.61;100.00;100995.72;5007703;28;20100;-73
2022/11/24 16:06:15;;;;;;;50.28;16.38;;;;;;;8.79;100.00;100990.56;5004363;28;20042;-74
2022/11/24 16:08:40;;;;;;;21.75;8.20;;;;;;;8.68;100.00;101002.28;5007284;28;20304;-74
2022/11/24 16:11:06;;;;;;;20.48;6.72;;;;;;;8.47;100.00;100996.19;5014909;28;20129;-75
2022/11/24 16:13:31;;;;;;;20.85;7.07;;;;;;;8.36;100.00;100990.31;5004332;28;20034;-75
2022/11/24 16:15:56;;;;;;;21.75;6.25;;;;;;;8.31;100.00;100996.97;4996271;28;20128;-75
2022/11/24 16:18:21;;;;;;;21.48;6.80;;;;;;;8.30;100.00;100994.53;4982066;28;20533;-75
2022/11/24 16:20:47;;;;;;;21.40;6.18;;;;;;;8.25;100.00;100997.59;4994248;28;20084;-75
2022/11/24 16:23:12;;;;;;;18.17;5.20;;;;;;;8.22;100.00;100999.13;4996998;28;20022;-75
2022/11/24 16:25:37;;;;;;;26.42;6.35;;;;;;;8.09;100.00;100992.81;4997862;28;20420;-75
2022/11/24 16:28:03;;;;;;;23.92;6.18;;;;;;;8.13;100.00;100990.91;4987647;28;20030;-73
2022/11/24 16:30:28;;;;;;;23.50;7.88;;;;;;;8.02;100.00;100995.41;5007393;28;20036;-74
2022/11/24 16:32:54;;;;;;;20.00;5.50;;;;;;;8.04;100.00;100986.69;4997690;28;20033;-74
2022/11/24 16:35:19;;;;;;;26.05;6.50;;;;;;;8.17;100.00;100991.03;5004560;28;20062;-74
2022/11/24 16:37:44;;;;;;;13.50;5.03;;;;;;;8.03;100.00;100980.31;5002340;28;20026;-74
2022/11/24 16:40:10;;;;;;;18.77;8.00;;;;;;;8.00;100.00;100985.78;4985530;28;20132;-74
2022/11/24 16:42:35;;;;;;;18.50;5.90;;;;;;;7.93;100.00;100987.22;5001940;28;20041;-74
2022/11/24 16:45:01;;;;;;;19.20;6.50;;;;;;;7.91;100.00;100986.75;5016719;28;20061;-74
2022/11/24 16:47:26;;;;;;;23.40;5.40;;;;;;;7.97;100.00;100980.91;4993342;28;20037;-74
2022/11/24 16:49:54;;;;;;;14.55;5.53;;;;;;;7.85;100.00;100979.03;5000369;28;20026;-73
2022/11/24 16:52:20;;;;;;;29.48;5.38;;;;;;;8.21;100.00;100986.34;4997473;28;20160;-74
2022/11/24 16:54:46;;;;;;;21.65;6.35;;;;;;;8.01;100.00;100990.19;5002899;28;20037;-74
2022/11/24 16:57:13;;;;;;;16.10;5.03;;;;;;;7.88;100.00;100987.47;4988503;28;20030;-74
2022/11/24 16:59:38;;;;;;;12.50;5.57;;;;;;;7.89;100.00;100982.72;5004365;28;20148;-74
2022/11/24 17:02:04;;;;;;;22.17;5.13;;;;;;;7.88;100.00;100979.09;4996374;28;20037;-74
2022/11/24 17:04:29;;;;;;;16.77;5.05;;;;;;;7.87;100.00;100988.66;5000008;28;20777;-74
2022/11/24 17:06:57;;;;;;;19.70;5.07;;;;;;;7.77;100.00;100986.38;4999623;28;20106;-75
2022/11/24 17:09:22;;;;;;;24.33;9.27;;;;;;;7.81;100.00;100995.66;5000413;28;20030;-75
2022/11/24 17:11:47;;;;;;;25.40;8.82;;;;;;;7.82;100.00;101000.06;5000614;28;20541;-76
2022/11/24 17:14:13;;;;;;;27.85;11.02;;;;;;;7.81;100.00;100992.84;5005141;28;20053;-76
2022/11/24 17:16:38;;;;;;;27.05;10.70;;;;;;;7.70;100.00;100994.53;4990454;28;20113;-74
2022/11/24 17:19:04;;;;;;;65.88;28.10;;;;;;;7.72;100.00;100997.78;4999133;28;20136;-75
2022/11/24 17:21:31;;;;;;;43.08;15.15;;;;;;;7.77;100.00;100991.16;4994108;28;20053;-74
2022/11/24 17:23:58;;;;;;;29.77;12.43;;;;;;;7.77;100.00;100985.56;4984863;28;20036;-74
2022/11/24 17:26:24;;;;;;;22.50;9.38;;;;;;;7.70;100.00;100988.97;5004138;28;20034;-74
2022/11/24 17:28:50;;;;;;;22.33;8.63;;;;;;;7.77;100.00;100997.53;4999446;28;20033;-76
2022/11/24 17:31:20;;;;;;;24.88;8.32;;;;;;;7.78;100.00;101001.94;5005302;28;20042;-75
2022/11/24 17:33:46;;;;;;;23.55;9.95;;;;;;;7.72;100.00;101003.38;4977177;28;20045;-75
2022/11/24 17:36:12;;;;;;;22.58;9.52;;;;;;;7.62;100.00;100999.09;5005004;28;20037;-75
2022/11/24 17:38:37;;;;;;;26.50;10.45;;;;;;;7.72;100.00;100997.78;4979019;28;20025;-75